createdAt,value
2023-05-22T00:01:14.870Z,100066.63
2023-05-22T00:03:42.951Z,100065.22
2023-05-22T00:06:12.055Z,100064.66
2023-05-22T00:08:40.273Z,100068.94
2023-05-22T00:11:08.680Z,100064.84
2023-05-22T00:13:36.775Z,100056.94
2023-05-22T00:16:07.296Z,100061.53
2023-05-22T00:18:35.334Z,100061.81
2023-05-22T00:21:03.866Z,100065.31
2023-05-22T00:23:31.925Z,100066.09
2023-05-22T00:26:00.324Z,100064.06
2023-05-22T00:28:29.253Z,100060.25
2023-05-22T00:30:57.573Z,100058.53
2023-05-22T00:33:27.065Z,100059.75
2023-05-22T00:35:55.365Z,100047.09
2023-05-22T00:38:33.888Z,100051.41
2023-05-22T00:41:02.754Z,100054.53
2023-05-22T00:43:31.329Z,100057.59
2023-05-22T00:45:59.710Z,100055.38
2023-05-22T00:48:29.438Z,100050.16
2023-05-22T00:50:58.873Z,100055.66
2023-05-22T00:53:29.661Z,100065.88
2023-05-22T00:55:58.579Z,100051.19
2023-05-22T00:58:28.108Z,100057.53
2023-05-22T01:00:57.067Z,100051.31
2023-05-22T01:03:27.411Z,100048.91
2023-05-22T01:05:57.466Z,100049.88
2023-05-22T01:08:25.993Z,100054.97
2023-05-22T01:10:59.985Z,100052.88
2023-05-22T01:13:31.256Z,100059.38
2023-05-22T01:16:07.428Z,100054.63
2023-05-22T01:18:42.193Z,100057.09
2023-05-22T01:21:16.183Z,100043.94
2023-05-22T01:24:18.230Z,100048.88
2023-05-22T01:27:09.539Z,100050.81
2023-05-22T01:29:46.166Z,100058.00
2023-05-22T01:32:18.569Z,100060.50
2023-05-22T01:34:47.857Z,100059.06
2023-05-22T01:37:18.256Z,100063.81
2023-05-22T01:39:46.700Z,100060.75
2023-05-22T01:42:16.229Z,100063.09
2023-05-22T01:44:44.495Z,100065.78
2023-05-22T01:47:12.871Z,100065.94
2023-05-22T01:49:42.750Z,100073.56
2023-05-22T01:52:14.634Z,100067.50
2023-05-22T01:54:46.728Z,100071.31
2023-05-22T01:57:20.070Z,100076.84
2023-05-22T01:59:50.799Z,100078.38
2023-05-22T02:02:20.557Z,100081.19
2023-05-22T02:05:01.832Z,100079.13
2023-05-22T02:07:31.341Z,100072.63
2023-05-22T02:10:00.016Z,100077.50
2023-05-22T02:12:28.541Z,100085.81
2023-05-22T02:14:56.611Z,100087.41
2023-05-22T02:17:26.044Z,100096.53
2023-05-22T02:19:55.502Z,100089.81
2023-05-22T02:22:23.870Z,100087.47
2023-05-22T02:24:51.988Z,100084.19
2023-05-22T02:27:20.324Z,100084.19
2023-05-22T02:29:48.387Z,100094.28
2023-05-22T02:32:16.701Z,100088.63
2023-05-22T02:34:45.034Z,100087.53
2023-05-22T02:37:15.787Z,100092.59
2023-05-22T02:39:43.845Z,100087.13
2023-05-22T02:42:12.197Z,100083.34
2023-05-22T02:44:40.260Z,100086.00
2023-05-22T02:47:08.657Z,100087.13
2023-05-22T02:49:36.772Z,100091.50
2023-05-22T02:52:05.610Z,100083.34
2023-05-22T02:54:35.112Z,100094.06
2023-05-22T02:57:04.138Z,100092.50
2023-05-22T02:59:32.790Z,100088.31
2023-05-22T03:02:01.370Z,100089.91
2023-05-22T03:04:30.295Z,100089.31
2023-05-22T03:06:59.071Z,100090.28
2023-05-22T03:09:27.208Z,100102.41
2023-05-22T03:11:57.147Z,100095.78
2023-05-22T03:14:25.222Z,100090.03
2023-05-22T03:16:54.684Z,100097.00
2023-05-22T03:19:24.016Z,100097.06
2023-05-22T03:21:52.503Z,100093.22
2023-05-22T03:24:20.891Z,100097.97
2023-05-22T03:26:49.330Z,100101.72
2023-05-22T03:29:26.269Z,100098.69
2023-05-22T03:31:55.324Z,100105.22
2023-05-22T03:34:23.560Z,100110.03
2023-05-22T03:36:51.885Z,100120.13
2023-05-22T03:39:19.943Z,100114.59
2023-05-22T03:41:57.839Z,100118.28
2023-05-22T03:44:28.266Z,100111.06
2023-05-22T03:46:56.775Z,100114.63
2023-05-22T03:49:24.915Z,100115.72
2023-05-22T03:51:53.256Z,100116.41
2023-05-22T03:54:21.299Z,100112.63
2023-05-22T03:56:50.598Z,100115.81
2023-05-22T03:59:20.777Z,100120.56
2023-05-22T04:01:50.801Z,100117.78
2023-05-22T04:04:19.238Z,100120.88
2023-05-22T04:06:47.559Z,100118.16
2023-05-22T04:09:16.167Z,100129.75
2023-05-22T04:11:44.564Z,100121.72
2023-05-22T04:14:12.980Z,100126.31
2023-05-22T04:16:41.274Z,100134.34
2023-05-22T04:19:10.715Z,100126.25
2023-05-22T04:21:39.354Z,100136.38
2023-05-22T04:24:08.066Z,100129.88
2023-05-22T04:26:37.200Z,100134.53
2023-05-22T04:29:10.243Z,100139.22
2023-05-22T04:31:38.638Z,100136.44
2023-05-22T04:34:07.320Z,100130.38
2023-05-22T04:36:38.823Z,100133.47
2023-05-22T04:39:06.900Z,100131.22
2023-05-22T04:41:35.233Z,100139.84
2023-05-22T04:44:04.063Z,100145.38
2023-05-22T04:46:34.329Z,100147.38
2023-05-22T04:49:03.257Z,100135.94
2023-05-22T04:51:32.894Z,100132.44
2023-05-22T04:54:02.413Z,100136.00
2023-05-22T04:56:36.749Z,100136.56
2023-05-22T04:59:08.967Z,100140.56
2023-05-22T05:01:38.451Z,100137.56
2023-05-22T05:04:06.802Z,100145.72
2023-05-22T05:06:35.816Z,100134.34
2023-05-22T05:09:05.846Z,100132.09
2023-05-22T05:11:34.218Z,100138.47
2023-05-22T05:14:02.341Z,100142.41
2023-05-22T05:16:30.737Z,100137.66
2023-05-22T05:18:58.998Z,100136.03
2023-05-22T05:21:28.002Z,100139.22
2023-05-22T05:23:59.052Z,100130.59
2023-05-22T05:26:29.381Z,100140.84
2023-05-22T05:28:57.544Z,100149.53
2023-05-22T05:31:32.905Z,100146.59
2023-05-22T05:34:27.505Z,100149.34
2023-05-22T05:37:03.105Z,100146.97
2023-05-22T05:39:32.085Z,100145.94
2023-05-22T05:42:03.672Z,100149.63
2023-05-22T05:44:31.729Z,100147.69
2023-05-22T05:47:01.160Z,100147.34
2023-05-22T05:49:29.606Z,100150.78
2023-05-22T05:51:58.574Z,100142.41
2023-05-22T05:54:27.583Z,100145.69
2023-05-22T05:57:00.082Z,100150.44
2023-05-22T05:59:31.818Z,100152.03
2023-05-22T06:02:20.278Z,100139.94
2023-05-22T06:04:49.522Z,100162.53
2023-05-22T06:07:19.848Z,100162.72
2023-05-22T06:09:51.607Z,100159.31
2023-05-22T06:12:43.116Z,100166.66
2023-05-22T06:15:13.120Z,100163.50
2023-05-22T06:17:41.829Z,100170.03
2023-05-22T06:20:10.660Z,100159.31
2023-05-22T06:22:38.948Z,100166.78
2023-05-22T06:25:08.033Z,100170.59
2023-05-22T06:27:36.345Z,100159.66
2023-05-22T06:30:05.066Z,100164.34
2023-05-22T06:32:40.162Z,100156.34
2023-05-22T06:35:10.294Z,100164.78
2023-05-22T06:37:38.969Z,100165.06
2023-05-22T06:40:10.016Z,100161.38
2023-05-22T06:42:46.711Z,100168.16
2023-05-22T06:45:30.078Z,100164.44
2023-05-22T06:48:18.355Z,100168.50
2023-05-22T06:51:02.865Z,100161.06
2023-05-22T06:53:31.387Z,100163.00
2023-05-22T06:55:59.538Z,100165.81
2023-05-22T06:58:43.971Z,100161.13
2023-05-22T07:01:12.276Z,100174.91
2023-05-22T07:03:49.777Z,100168.28
2023-05-22T07:06:33.483Z,100170.16
2023-05-22T07:09:03.079Z,100173.25
2023-05-22T07:11:31.501Z,100173.00
2023-05-22T07:14:00.127Z,100170.72
2023-05-22T07:16:29.790Z,100177.38
2023-05-22T07:18:59.558Z,100176.34
2023-05-22T07:21:30.212Z,100183.13
2023-05-22T07:23:59.149Z,100180.56
2023-05-22T07:26:27.631Z,100182.75
2023-05-22T07:29:04.493Z,100183.69
2023-05-22T07:31:34.218Z,100185.66
2023-05-22T07:34:04.926Z,100182.25
2023-05-22T07:36:34.684Z,100179.56
2023-05-22T07:39:05.021Z,100181.34
2023-05-22T07:41:36.762Z,100186.41
2023-05-22T07:44:05.403Z,100178.03
2023-05-22T07:46:38.138Z,100188.66
2023-05-22T07:49:20.192Z,100185.34
2023-05-22T07:51:49.088Z,100191.97
2023-05-22T07:54:18.412Z,100188.47
2023-05-22T07:56:50.098Z,100194.16
2023-05-22T07:59:21.513Z,100202.25
2023-05-22T08:01:49.675Z,100194.34
2023-05-22T08:04:19.465Z,100189.25
2023-05-22T08:06:47.672Z,100188.78
2023-05-22T08:09:16.061Z,100190.16
2023-05-22T08:11:44.121Z,100192.94
2023-05-22T08:14:12.934Z,100194.72
2023-05-22T08:16:41.067Z,100179.47
2023-05-22T08:19:09.899Z,100195.72
2023-05-22T08:21:40.224Z,100202.31
2023-05-22T08:24:08.919Z,100199.72
2023-05-22T08:26:38.755Z,100204.25
2023-05-22T08:29:07.060Z,100203.56
2023-05-22T08:31:35.761Z,100201.19
2023-05-22T08:34:04.858Z,100198.75
2023-05-22T08:36:33.889Z,100191.94
2023-05-22T08:39:03.841Z,100194.34
2023-05-22T08:41:32.025Z,100195.38
2023-05-22T08:44:00.361Z,100191.19
2023-05-22T08:46:29.413Z,100195.56
2023-05-22T08:48:58.896Z,100188.81
2023-05-22T08:51:29.314Z,100196.16
2023-05-22T08:53:57.982Z,100195.63
2023-05-22T08:56:29.488Z,100181.25
2023-05-22T08:58:58.605Z,100185.34
2023-05-22T09:01:27.250Z,100180.31
2023-05-22T09:03:56.516Z,100173.97
2023-05-22T09:06:24.659Z,100172.94
2023-05-22T09:08:53.353Z,100172.25
2023-05-22T09:11:21.575Z,100174.34
2023-05-22T09:13:52.142Z,100162.84
2023-05-22T09:16:20.760Z,100173.56
2023-05-22T09:18:49.125Z,100177.66
2023-05-22T09:21:28.981Z,100173.06
2023-05-22T09:24:01.020Z,100161.78
2023-05-22T09:26:29.691Z,100164.25
2023-05-22T09:29:00.760Z,100162.66
2023-05-22T09:31:30.162Z,100158.16
2023-05-22T09:33:59.187Z,100155.88
2023-05-22T09:36:33.074Z,100157.88
2023-05-22T09:39:02.331Z,100162.84
2023-05-22T09:41:31.305Z,100158.72
2023-05-22T09:44:02.126Z,100166.97
2023-05-22T09:46:30.570Z,100165.81
2023-05-22T09:48:59.112Z,100153.97
2023-05-22T09:51:27.418Z,100158.63
2023-05-22T09:54:06.249Z,100151.63
2023-05-22T09:56:39.556Z,100152.56
2023-05-22T09:59:10.514Z,100156.13
2023-05-22T10:01:39.814Z,100147.31
2023-05-22T10:04:13.377Z,100155.38
2023-05-22T10:06:41.962Z,100148.72
2023-05-22T10:09:12.432Z,100150.50
2023-05-22T10:11:41.006Z,100139.97
2023-05-22T10:14:10.710Z,100142.97
2023-05-22T10:16:38.811Z,100148.22
2023-05-22T10:19:08.309Z,100142.69
2023-05-22T10:21:37.746Z,100144.94
2023-05-22T10:24:07.478Z,100142.06
2023-05-22T10:26:35.757Z,100141.78
2023-05-22T10:29:08.641Z,100139.47
2023-05-22T10:31:45.434Z,100134.84
2023-05-22T10:34:31.403Z,100135.44
2023-05-22T10:37:17.085Z,100133.78
2023-05-22T10:39:55.668Z,100132.81
2023-05-22T10:42:23.782Z,100127.72
2023-05-22T10:44:54.165Z,100124.75
2023-05-22T10:47:23.574Z,100127.38
2023-05-22T10:50:04.144Z,100125.25
2023-05-22T10:52:32.327Z,100123.16
2023-05-22T10:55:02.040Z,100116.31
2023-05-22T10:57:34.616Z,100121.25
2023-05-22T11:00:10.919Z,100120.41
2023-05-22T11:02:46.897Z,100116.63
2023-05-22T11:05:39.656Z,100102.31
2023-05-22T11:08:38.598Z,100110.31
2023-05-22T11:11:14.381Z,100107.78
2023-05-22T11:13:43.623Z,100107.16
2023-05-22T11:16:12.241Z,100110.81
2023-05-22T11:18:41.752Z,100108.25
2023-05-22T11:21:13.850Z,100104.66
2023-05-22T11:23:42.022Z,100104.69
2023-05-22T11:26:27.082Z,100100.16
2023-05-22T11:28:56.578Z,100097.75
2023-05-22T11:31:26.403Z,100095.00
2023-05-22T11:33:56.122Z,100090.03
2023-05-22T11:36:25.726Z,100094.44
2023-05-22T11:38:58.587Z,100086.72
2023-05-22T11:41:33.408Z,100086.66
2023-05-22T11:44:02.534Z,100077.47
2023-05-22T11:46:31.068Z,100074.09
2023-05-22T11:49:00.776Z,100085.09
2023-05-22T11:51:29.246Z,100072.91
2023-05-22T11:53:58.302Z,100070.78
2023-05-22T11:56:26.986Z,100062.63
2023-05-22T11:58:55.298Z,100065.66
2023-05-22T12:01:23.641Z,100065.78
2023-05-22T12:03:51.770Z,100062.91
2023-05-22T12:06:21.539Z,100055.72
2023-05-22T12:08:49.711Z,100045.22
2023-05-22T12:11:18.090Z,100051.53
2023-05-22T12:13:46.185Z,100046.13
2023-05-22T12:16:22.720Z,100042.34
2023-05-22T12:18:53.622Z,100040.28
2023-05-22T12:21:23.534Z,100039.63
2023-05-22T12:23:52.519Z,100037.16
2023-05-22T12:26:21.372Z,100030.19
2023-05-22T12:28:49.512Z,100023.31
2023-05-22T12:31:21.560Z,100020.75
2023-05-22T12:33:49.914Z,100029.00
2023-05-22T12:36:18.225Z,100024.41
2023-05-22T12:38:47.790Z,100031.38
2023-05-22T12:41:16.259Z,100033.88
2023-05-22T12:43:44.386Z,100029.28
2023-05-22T12:46:12.706Z,100035.13
2023-05-22T12:48:40.802Z,100031.59
2023-05-22T12:51:10.225Z,100030.91
2023-05-22T12:53:38.627Z,100024.78
2023-05-22T12:56:08.322Z,100023.97
2023-05-22T12:58:36.501Z,100034.19
2023-05-22T13:01:04.960Z,100032.78
2023-05-22T13:03:33.238Z,100027.53
2023-05-22T13:06:01.566Z,100021.41
2023-05-22T13:08:29.680Z,100016.03
2023-05-22T13:10:58.178Z,100017.31
2023-05-22T13:13:27.985Z,100010.75
2023-05-22T13:15:56.337Z,100008.03
2023-05-22T13:18:24.369Z,100002.22
2023-05-22T13:20:52.720Z,99998.34
2023-05-22T13:23:20.835Z,100003.38
2023-05-22T13:25:49.189Z,99999.88
2023-05-22T13:28:17.291Z,99994.38
2023-05-22T13:30:47.180Z,99997.94
2023-05-22T13:33:15.281Z,100004.94
2023-05-22T13:35:43.571Z,99995.88
2023-05-22T13:38:11.665Z,99995.13
2023-05-22T13:40:42.744Z,99993.50
2023-05-22T13:43:11.162Z,99987.31
2023-05-22T13:45:39.637Z,99987.50
2023-05-22T13:48:09.246Z,99982.19
2023-05-22T13:50:37.619Z,99985.91
2023-05-22T13:53:05.657Z,99976.28
2023-05-22T13:55:33.975Z,99973.84
2023-05-22T13:58:02.023Z,99971.41
2023-05-22T14:00:30.638Z,99968.53
2023-05-22T14:02:58.956Z,99959.31
2023-05-22T14:05:28.637Z,99954.19
2023-05-22T14:07:56.777Z,99959.47
2023-05-22T14:10:25.155Z,99954.91
2023-05-22T14:12:54.476Z,99952.97
2023-05-22T14:15:24.185Z,99942.28
2023-05-22T14:17:52.363Z,99939.75
2023-05-22T14:20:21.058Z,99942.41
2023-05-22T14:22:57.793Z,99948.19
2023-05-22T14:25:26.961Z,99952.50
2023-05-22T14:27:55.087Z,99950.97
2023-05-22T14:30:23.647Z,99952.44
2023-05-22T14:32:52.137Z,99944.31
2023-05-22T14:35:20.887Z,99952.88
2023-05-22T14:37:50.586Z,99943.31
2023-05-22T14:40:19.164Z,99950.75
2023-05-22T14:42:47.513Z,99954.84
2023-05-22T14:45:15.939Z,99961.25
2023-05-22T14:47:43.971Z,99954.41
2023-05-22T14:50:19.048Z,99954.06
2023-05-22T14:52:50.066Z,99950.19
2023-05-22T14:55:18.507Z,99953.13
2023-05-22T14:57:46.715Z,99958.88
2023-05-22T15:00:16.340Z,99960.44
2023-05-22T15:02:44.431Z,99971.69
2023-05-22T15:05:13.010Z,99977.22
2023-05-22T15:07:44.712Z,99984.47
2023-05-22T15:10:15.974Z,99977.00
2023-05-22T15:12:43.974Z,99978.34
2023-05-22T15:15:12.783Z,99974.38
2023-05-22T15:17:42.934Z,99982.78
2023-05-22T15:20:12.625Z,99973.97
2023-05-22T15:22:40.761Z,99984.78
2023-05-22T15:25:11.550Z,99978.72
2023-05-22T15:27:41.258Z,99987.34
2023-05-22T15:30:10.786Z,99993.59
2023-05-22T15:32:39.403Z,99996.56
2023-05-22T15:35:09.064Z,100003.00
2023-05-22T15:37:37.153Z,99989.06
2023-05-22T15:40:06.937Z,99991.03
2023-05-22T15:42:35.077Z,99989.78
2023-05-22T15:45:05.630Z,99979.72
2023-05-22T15:47:34.213Z,99993.13
2023-05-22T15:50:02.556Z,99988.03
2023-05-22T15:52:30.732Z,99990.13
2023-05-22T15:54:59.274Z,99978.81
2023-05-22T15:57:27.717Z,99992.00
2023-05-22T15:59:56.162Z,99982.34
2023-05-22T16:02:25.619Z,99991.81
2023-05-22T16:04:53.972Z,99994.91
2023-05-22T16:07:22.137Z,99987.91
2023-05-22T16:09:50.996Z,99984.16
2023-05-22T16:12:19.433Z,100000.34
2023-05-22T16:14:47.772Z,100001.81
2023-05-22T16:17:15.989Z,100002.56
2023-05-22T16:19:45.713Z,100013.19
2023-05-22T16:22:13.828Z,100006.53
2023-05-22T16:24:42.150Z,100017.41
2023-05-22T16:27:10.282Z,100016.03
2023-05-22T16:29:38.579Z,100026.56
2023-05-22T16:32:06.902Z,100027.13
2023-05-22T16:34:36.393Z,100034.72
2023-05-22T16:37:06.060Z,100034.13
2023-05-22T16:39:34.450Z,100040.50
2023-05-22T16:42:02.480Z,100047.03
2023-05-22T16:44:30.829Z,100053.63
2023-05-22T16:46:58.951Z,100048.19
2023-05-22T16:49:33.122Z,100062.19
2023-05-22T16:52:01.172Z,100056.06
2023-05-22T16:54:30.782Z,100066.13
2023-05-22T16:56:58.868Z,100068.13
2023-05-22T16:59:27.167Z,100062.56
2023-05-22T17:01:55.180Z,100073.56
2023-05-22T17:04:23.456Z,100070.06
2023-05-22T17:06:53.688Z,100071.19
2023-05-22T17:09:22.165Z,100073.66
2023-05-22T17:11:51.535Z,100077.88
2023-05-22T17:14:21.628Z,100088.38
2023-05-22T17:16:49.841Z,100087.94
2023-05-22T17:19:18.419Z,100096.97
2023-05-22T17:21:46.689Z,100099.28
2023-05-22T17:24:15.147Z,100101.81
2023-05-22T17:26:43.361Z,100102.19
2023-05-22T17:29:12.986Z,100105.34
2023-05-22T17:31:41.091Z,100110.94
2023-05-22T17:34:09.575Z,100111.81
2023-05-22T17:36:37.889Z,100109.38
2023-05-22T17:39:06.611Z,100106.22
2023-05-22T17:41:34.882Z,100116.34
2023-05-22T17:44:03.205Z,100129.38
2023-05-22T17:46:32.828Z,100136.66
2023-05-22T17:49:01.139Z,100130.72
2023-05-22T17:51:29.394Z,100141.72
2023-05-22T17:53:58.953Z,100148.69
2023-05-22T17:56:27.715Z,100147.47
2023-05-22T17:58:56.080Z,100153.28
2023-05-22T18:01:24.415Z,100149.44
2023-05-22T18:03:54.439Z,100157.53
2023-05-22T18:06:24.269Z,100153.25
2023-05-22T18:08:53.119Z,100155.50
2023-05-22T18:11:21.245Z,100156.72
2023-05-22T18:13:49.634Z,100154.16
2023-05-22T18:16:18.812Z,100150.28
2023-05-22T18:18:47.117Z,100149.53
2023-05-22T18:21:16.546Z,100146.88
2023-05-22T18:23:44.889Z,100138.50
2023-05-22T18:26:13.001Z,100115.84
2023-05-22T18:28:42.352Z,100104.69
2023-05-22T18:31:10.513Z,100106.97
2023-05-22T18:33:39.716Z,100110.13
2023-05-22T18:36:07.870Z,100119.84
2023-05-22T18:38:37.593Z,100123.69
2023-05-22T18:41:06.714Z,100116.03
2023-05-22T18:43:35.081Z,100114.69
2023-05-22T18:46:03.275Z,100120.78
2023-05-22T18:48:33.070Z,100125.28
2023-05-22T18:51:01.355Z,100131.56
2023-05-22T18:53:29.996Z,100129.66
2023-05-22T18:55:59.359Z,100122.53
2023-05-22T18:58:27.693Z,100127.72
2023-05-22T19:00:56.293Z,100124.56
2023-05-22T19:03:24.703Z,100118.38
2023-05-22T19:05:53.208Z,100125.25
2023-05-22T19:08:21.562Z,100120.03
2023-05-22T19:10:49.632Z,100119.13
2023-05-22T19:13:19.440Z,100121.94
2023-05-22T19:15:47.519Z,100117.06
2023-05-22T19:18:15.951Z,100107.72
2023-05-22T19:20:44.161Z,100109.06
2023-05-22T19:23:13.772Z,100117.03
2023-05-22T19:25:41.920Z,100124.78
2023-05-22T19:28:10.385Z,100124.34
2023-05-22T19:30:40.214Z,100117.94
2023-05-22T19:33:09.042Z,100122.25
2023-05-22T19:35:37.813Z,100123.19
2023-05-22T19:38:06.271Z,100117.41
2023-05-22T19:40:34.325Z,100125.69
2023-05-22T19:43:02.918Z,100117.13
2023-05-22T19:45:31.108Z,100130.56
2023-05-22T19:48:00.874Z,100133.69
2023-05-22T19:50:28.918Z,100139.00
2023-05-22T19:52:57.348Z,100141.63
2023-05-22T19:55:25.621Z,100146.09
2023-05-22T19:57:53.924Z,100152.59
2023-05-22T20:00:22.656Z,100154.53
2023-05-22T20:02:51.268Z,100157.03
2023-05-22T20:05:20.916Z,100158.09
2023-05-22T20:07:49.337Z,100167.16
2023-05-22T20:10:17.580Z,100172.84
2023-05-22T20:12:48.543Z,100172.91
2023-05-22T20:15:17.726Z,100178.34
2023-05-22T20:17:47.530Z,100181.72
2023-05-22T20:20:15.889Z,100189.41
2023-05-22T20:22:45.718Z,100189.94
2023-05-22T20:25:13.855Z,100186.38
2023-05-22T20:27:42.230Z,100192.16
2023-05-22T20:30:12.516Z,100195.66
2023-05-22T20:32:42.484Z,100201.22
2023-05-22T20:35:13.721Z,100209.31
2023-05-22T20:37:42.092Z,100215.19
2023-05-22T20:40:12.963Z,100217.28
2023-05-22T20:42:42.533Z,100227.50
2023-05-22T20:45:14.200Z,100228.19
2023-05-22T20:47:43.354Z,100230.72
2023-05-22T20:50:12.043Z,100229.97
2023-05-22T20:52:40.429Z,100233.91
2023-05-22T20:55:09.355Z,100232.66
2023-05-22T20:57:39.206Z,100242.31
2023-05-22T21:00:11.062Z,100239.00
2023-05-22T21:02:39.803Z,100244.41
2023-05-22T21:05:08.717Z,100257.53
2023-05-22T21:07:37.321Z,100258.34
2023-05-22T21:10:08.065Z,100254.25
2023-05-22T21:12:39.354Z,100266.09
2023-05-22T21:15:11.619Z,100263.25
2023-05-22T21:17:40.213Z,100268.50
2023-05-22T21:20:09.037Z,100272.94
2023-05-22T21:22:37.327Z,100270.72
2023-05-22T21:25:06.176Z,100272.59
2023-05-22T21:27:34.491Z,100262.75
2023-05-22T21:30:03.986Z,100282.09
2023-05-22T21:32:32.330Z,100276.88
2023-05-22T21:35:00.416Z,100274.50
2023-05-22T21:37:28.728Z,100268.97
2023-05-22T21:39:56.780Z,100275.16
2023-05-22T21:42:26.183Z,100270.56
2023-05-22T21:44:54.347Z,100269.44
2023-05-22T21:47:24.117Z,100276.75
2023-05-22T21:49:52.232Z,100277.03
2023-05-22T21:52:20.675Z,100278.97
2023-05-22T21:54:48.714Z,100277.84
2023-05-22T21:57:17.043Z,100275.78
2023-05-22T21:59:47.097Z,100275.31
2023-05-22T22:02:15.536Z,100278.78
2023-05-22T22:04:45.052Z,100268.16
2023-05-22T22:07:14.029Z,100275.28
2023-05-22T22:09:42.172Z,100287.19
2023-05-22T22:12:10.525Z,100280.66
2023-05-22T22:14:38.521Z,100286.03
2023-05-22T22:17:07.811Z,100290.47
2023-05-22T22:19:36.130Z,100293.66
2023-05-22T22:22:06.596Z,100301.72
2023-05-22T22:24:34.980Z,100296.16
2023-05-22T22:27:03.513Z,100302.34
2023-05-22T22:29:31.593Z,100291.59
2023-05-22T22:32:00.703Z,100298.53
2023-05-22T22:34:29.029Z,100296.63
2023-05-22T22:36:57.761Z,100294.38
2023-05-22T22:39:27.393Z,100300.97
2023-05-22T22:41:55.779Z,100298.53
2023-05-22T22:44:23.851Z,100301.25
2023-05-22T22:46:52.092Z,100303.47
2023-05-22T22:49:21.647Z,100304.44
2023-05-22T22:51:50.949Z,100311.84
2023-05-22T22:54:18.963Z,100316.28
2023-05-22T22:56:49.707Z,100322.13
2023-05-22T22:59:17.818Z,100318.19
2023-05-22T23:01:46.176Z,100330.56
2023-05-22T23:04:14.470Z,100324.28
2023-05-22T23:06:42.901Z,100317.81
2023-05-22T23:09:11.076Z,100332.88
2023-05-22T23:11:39.876Z,100320.66
2023-05-22T23:14:10.021Z,100329.72
2023-05-22T23:16:40.762Z,100333.53
2023-05-22T23:19:11.849Z,100338.28
2023-05-22T23:21:40.417Z,100334.97
2023-05-22T23:24:09.957Z,100327.50
2023-05-22T23:26:38.299Z,100332.91
2023-05-22T23:29:06.448Z,100330.72
2023-05-22T23:31:36.601Z,100329.84
2023-05-22T23:34:04.761Z,100341.56
2023-05-22T23:36:33.505Z,100337.97
2023-05-22T23:39:01.600Z,100335.47
2023-05-22T23:41:29.873Z,100344.00
2023-05-22T23:43:57.969Z,100339.84
2023-05-22T23:46:26.274Z,100350.47
2023-05-22T23:48:55.721Z,100343.50
2023-05-22T23:51:24.060Z,100337.00
2023-05-22T23:53:52.119Z,100342.38
2023-05-22T23:56:21.461Z,100336.50
2023-05-22T23:58:49.715Z,100334.63
